Airfield :
LOGIN :

Register | Disclaimer

   EN    FR    IT 

 










Legend :    VFR   Marginal VFR   IFR   Intensive IFR   Very Intensive IFR
Visi :
Ceiling :
>= 8 km
>= 3000ft
5 to 8 km
1000 to 3000 ft
1500m to 5 km
500 to 1000 ft
800 to 1500m
200 to 500 ft
< 800m
< 200 ft
Symbols :   Thunderstorms  Fog  Heavy snow  Heavy precipitations  Wind > 20 kt
SIGMETs :     Misc.  Thunderstorms  Icing  Turbulence  Mountain Waves  Volcanic Ashes







- Airport Elevation : 87 ft
- IATA code : AHO


LIEA - Fertilia Alghero

CURRENT METAR :
  • 150450Z 08003KT 030V110 9999 SCT040 07/05 Q1016

EXPIRED METARs :
  • 150420Z VRB02KT 9999 SCT045 08/05 Q1016
  • 150350Z VRB02KT 9999 SCT040 08/04 Q1016
  • 150320Z VRB02KT 9999 SCT040 08/04 Q1016
  • 150250Z VRB01KT 9999 FEW040 09/04 Q1015
  • 150220Z VRB01KT 9999 FEW040 09/03 Q1015

TAF TAF LIEA
Valid from the 15 at 00:00 until the 16 at 00:00 UTC


142300Z 1500/1524 34010KT 9999 FEW040
BECMG 1516/1518 VRB04KT
No reported NOTAMs for that airfield.
2 SIGMETs reported for the Roma FIR (LIRR) :
 
Embedded thunderstorms
LIRR SIGMET 3 VALID 150515/150715 LIIB
LIRR ROMA FIR EMBD TS FCST WI N3758 E01612 - N3854 E01628 - N3849 E01855 - N3750 E01857 - N3758 E01612 TOP FL360 MOV N NC=
Embedded thunderstorms
LIRR SIGMET 1 VALID 150215/150515 LIIB
LIRR ROMA FIR EMBD TS FCST WI N3858 E01620 - N3849 E01855 - N3630 E01900 - N3632 E01532 - N3858 E01620 TOP FL360 STNR NC=



MET'MAP, your aeronautical weather chart ! - Copyright ORBIFLY December 2007 - Disclaimer

ORBIFLY MET'MAP TEAM :

Programming & Development : Alexandra Zaïnal
Concept & Development : Baudouin d'Aumeries
Co-Development & Prog : Marc-Olivier Méhu
Technical & hardware support : Manuel Goepfert

Contact : metmap@orbifly.com




SOURCES & CREDITS :

   NOAA